Chembulk Gibraltar — 9VFA5 — position and weather

sailwx.info

Track history (hours):
 
Tides and Currents Weather Stations Pressure Air Temp Water Temp Dewpoint Dewpoint Depression Visibility Wind Speed Wind Dir Waves Ship Positions

Chembulk Gibraltar

Last reported at 2015-May-29 15:22 UTC. Time now 2015-May-30 08:28 UTC.
Position N 29°43' W 095°01'.

Length 143 m; draft 9.4 m.

Type: Ship (hazmat cat B). MMSI: 565722000.

Date/timePositionNaut miles runAvg speedWind from/ knotsBaromVisibWave heightAir tempDewpointWater temp
2015-May-29 15:22N 29°43' W 095°01'6 7.5
2015-May-29 14:33N 29°38' W 094°58'10 9.8
2015-May-29 13:32N 29°29' W 094°52'5 0.3
2015-May-28 22:25N 29°33' W 094°55'6 6.8
2015-May-28 21:33N 29°37' W 095°00'1 0.0
2015-May-28 01:22N 29°37' W 095°01'4 5.2
2015-May-28 00:33N 29°35' W 094°56'3 0.1
2015-May-26 00:25N 29°33' W 094°54'1011.2
2015-May-25 23:34N 29°41' W 094°59'7 0.3
2015-May-24 21:32N 29°45' W 095°06'4 4.3
2015-May-24 20:33N 29°43' W 095°01'1110.6
2015-May-24 19:33N 29°34' W 094°55'2 0.3
2015-May-24 12:33N 29°33' W 094°54'1111.2
2015-May-24 11:32N 29°42' W 095°01'5 0.1
2015-May-23 00:09N 29°45' W 095°06'1 1.0
2015-May-22 23:32N 29°45' W 095°06'8 8.6
2015-May-22 22:33N 29°40' W 094°58'  
Track history (hours):
 
Tides and Currents Weather Stations Pressure Air Temp Water Temp Dewpoint Dewpoint Depression Visibility Wind Speed Wind Dir Waves Ship Positions

Chembulk Gibraltar

Last reported at 2015-May-29 15:22 UTC. Time now 2015-May-30 08:28 UTC.
Position N 29°43' W 095°01'.

Length 143 m; draft 9.4 m.

Type: Ship (hazmat cat B). MMSI: 565722000.

Date/timePositionNaut miles runAvg speedWind from/ knotsBaromVisibWave heightAir tempDewpointWater temp
2015-May-29 15:22N 29°43' W 095°01'6 7.5
2015-May-29 14:33N 29°38' W 094°58'10 9.8
2015-May-29 13:32N 29°29' W 094°52'5 0.3
2015-May-28 22:25N 29°33' W 094°55'6 6.8
2015-May-28 21:33N 29°37' W 095°00'1 0.0
2015-May-28 01:22N 29°37' W 095°01'4 5.2
2015-May-28 00:33N 29°35' W 094°56'3 0.1
2015-May-26 00:25N 29°33' W 094°54'1011.2
2015-May-25 23:34N 29°41' W 094°59'7 0.3
2015-May-24 21:32N 29°45' W 095°06'4 4.3
2015-May-24 20:33N 29°43' W 095°01'1110.6
2015-May-24 19:33N 29°34' W 094°55'2 0.3
2015-May-24 12:33N 29°33' W 094°54'1111.2
2015-May-24 11:32N 29°42' W 095°01'5 0.1
2015-May-23 00:09N 29°45' W 095°06'1 1.0
2015-May-22 23:32N 29°45' W 095°06'8 8.6
2015-May-22 22:33N 29°40' W 094°58'  

Dump ship's entire track history